sensor_id;sensor_type;location;lat;lon;timestamp;pressure;altitude;pressure_sealevel;temperature;humidity
36190;BME280;22232;50.914;13.858;2023-12-22T00:00:27;95239.25;;;3.21;100.00
36190;BME280;22232;50.914;13.858;2023-12-22T00:02:55;95247.16;;;3.21;100.00
36190;BME280;22232;50.914;13.858;2023-12-22T00:05:23;95244.78;;;3.20;100.00
36190;BME280;22232;50.914;13.858;2023-12-22T00:07:50;95250.56;;;3.17;100.00
36190;BME280;22232;50.914;13.858;2023-12-22T00:10:18;95254.50;;;3.19;100.00
36190;BME280;22232;50.914;13.858;2023-12-22T00:12:46;95263.72;;;3.17;100.00
36190;BME280;22232;50.914;13.858;2023-12-22T00:15:13;95258.44;;;3.17;100.00
36190;BME280;22232;50.914;13.858;2023-12-22T00:17:41;95257.63;;;3.16;100.00
36190;BME280;22232;50.914;13.858;2023-12-22T00:20:09;95259.25;;;3.17;100.00
36190;BME280;22232;50.914;13.858;2023-12-22T00:22:41;95234.97;;;3.15;100.00
36190;BME280;22232;50.914;13.858;2023-12-22T00:25:08;95264.00;;;3.20;100.00
36190;BME280;22232;50.914;13.858;2023-12-22T00:27:37;95266.66;;;3.20;100.00
36190;BME280;22232;50.914;13.858;2023-12-22T00:30:05;95266.16;;;3.24;100.00
36190;BME280;22232;50.914;13.858;2023-12-22T00:32:32;95258.75;;;3.20;100.00
36190;BME280;22232;50.914;13.858;2023-12-22T00:35:00;95257.09;;;3.14;100.00
36190;BME280;22232;50.914;13.858;2023-12-22T00:37:28;95267.06;;;3.12;100.00
36190;BME280;22232;50.914;13.858;2023-12-22T00:39:55;95263.53;;;3.02;100.00
36190;BME280;22232;50.914;13.858;2023-12-22T00:42:24;95257.16;;;2.97;100.00
36190;BME280;22232;50.914;13.858;2023-12-22T00:44:53;95257.94;;;2.98;100.00
36190;BME280;22232;50.914;13.858;2023-12-22T00:47:20;95257.78;;;3.05;100.00
36190;BME280;22232;50.914;13.858;2023-12-22T00:49:48;95250.38;;;3.02;100.00
36190;BME280;22232;50.914;13.858;2023-12-22T00:52:15;95276.44;;;3.03;100.00
36190;BME280;22232;50.914;13.858;2023-12-22T00:54:43;95263.06;;;3.05;100.00
36190;BME280;22232;50.914;13.858;2023-12-22T00:57:11;95256.47;;;3.07;100.00
36190;BME280;22232;50.914;13.858;2023-12-22T00:59:39;95265.19;;;3.08;100.00
36190;BME280;22232;50.914;13.858;2023-12-22T01:02:15;95262.84;;;3.11;100.00
36190;BME280;22232;50.914;13.858;2023-12-22T01:04:43;95276.06;;;3.16;100.00
36190;BME280;22232;50.914;13.858;2023-12-22T01:07:11;95268.50;;;3.20;100.00
36190;BME280;22232;50.914;13.858;2023-12-22T01:09:40;95238.41;;;3.16;100.00
36190;BME280;22232;50.914;13.858;2023-12-22T01:12:07;95256.66;;;3.22;100.00
36190;BME280;22232;50.914;13.858;2023-12-22T01:14:35;95260.09;;;3.23;100.00
36190;BME280;22232;50.914;13.858;2023-12-22T01:17:03;95266.16;;;3.24;100.00
36190;BME280;22232;50.914;13.858;2023-12-22T01:19:30;95274.34;;;3.27;100.00
36190;BME280;22232;50.914;13.858;2023-12-22T01:21:58;95273.06;;;3.30;100.00
36190;BME280;22232;50.914;13.858;2023-12-22T01:24:25;95270.38;;;3.25;100.00
36190;BME280;22232;50.914;13.858;2023-12-22T01:26:53;95273.78;;;3.25;100.00
36190;BME280;22232;50.914;13.858;2023-12-22T01:29:20;95265.84;;;3.20;100.00
36190;BME280;22232;50.914;13.858;2023-12-22T01:31:48;95257.47;;;3.23;100.00
36190;BME280;22232;50.914;13.858;2023-12-22T01:34:16;95274.00;;;3.18;100.00
36190;BME280;22232;50.914;13.858;2023-12-22T01:36:43;95266.34;;;3.17;100.00
36190;BME280;22232;50.914;13.858;2023-12-22T01:39:11;95254.47;;;3.14;100.00
36190;BME280;22232;50.914;13.858;2023-12-22T01:41:38;95255.50;;;3.13;100.00
36190;BME280;22232;50.914;13.858;2023-12-22T01:44:06;95279.53;;;3.17;100.00
36190;BME280;22232;50.914;13.858;2023-12-22T01:46:34;95294.28;;;3.18;100.00
36190;BME280;22232;50.914;13.858;2023-12-22T01:49:03;95307.66;;;3.16;100.00
36190;BME280;22232;50.914;13.858;2023-12-22T01:51:33;95300.03;;;3.15;100.00
36190;BME280;22232;50.914;13.858;2023-12-22T01:54:01;95311.63;;;3.14;100.00
36190;BME280;22232;50.914;13.858;2023-12-22T01:56:29;95293.59;;;3.06;100.00
36190;BME280;22232;50.914;13.858;2023-12-22T01:58:59;95298.78;;;3.01;100.00
36190;BME280;22232;50.914;13.858;2023-12-22T02:01:28;95312.44;;;2.97;100.00
36190;BME280;22232;50.914;13.858;2023-12-22T02:03:56;95324.03;;;2.96;100.00
36190;BME280;22232;50.914;13.858;2023-12-22T02:06:26;95293.00;;;2.98;100.00
36190;BME280;22232;50.914;13.858;2023-12-22T02:08:57;95315.06;;;2.97;100.00
36190;BME280;22232;50.914;13.858;2023-12-22T02:11:25;95310.13;;;3.01;100.00
36190;BME280;22232;50.914;13.858;2023-12-22T02:13:53;95318.28;;;2.99;100.00
36190;BME280;22232;50.914;13.858;2023-12-22T02:16:42;95336.72;;;2.99;100.00
36190;BME280;22232;50.914;13.858;2023-12-22T02:19:42;95335.53;;;2.90;100.00
36190;BME280;22232;50.914;13.858;2023-12-22T02:22:12;95355.50;;;2.86;100.00
36190;BME280;22232;50.914;13.858;2023-12-22T02:24:41;95365.06;;;2.75;100.00
36190;BME280;22232;50.914;13.858;2023-12-22T02:29:49;95352.34;;;2.50;100.00
36190;BME280;22232;50.914;13.858;2023-12-22T02:32:22;95367.94;;;2.40;100.00
36190;BME280;22232;50.914;13.858;2023-12-22T02:34:52;95361.25;;;2.33;100.00
36190;BME280;22232;50.914;13.858;2023-12-22T02:37:22;95365.25;;;2.35;100.00
36190;BME280;22232;50.914;13.858;2023-12-22T02:39:52;95375.28;;;2.38;100.00
36190;BME280;22232;50.914;13.858;2023-12-22T02:42:21;95375.50;;;2.37;100.00
36190;BME280;22232;50.914;13.858;2023-12-22T02:44:53;95386.75;;;2.32;100.00
36190;BME280;22232;50.914;13.858;2023-12-22T02:47:21;95369.31;;;2.26;100.00
36190;BME280;22232;50.914;13.858;2023-12-22T02:49:48;95365.84;;;2.09;100.00
36190;BME280;22232;50.914;13.858;2023-12-22T02:52:16;95381.63;;;2.09;100.00
36190;BME280;22232;50.914;13.858;2023-12-22T02:54:43;95375.56;;;2.08;100.00
36190;BME280;22232;50.914;13.858;2023-12-22T02:57:11;95382.81;;;2.01;100.00
36190;BME280;22232;50.914;13.858;2023-12-22T02:59:39;95375.25;;;2.04;100.00
36190;BME280;22232;50.914;13.858;2023-12-22T03:02:06;95373.88;;;2.02;100.00
36190;BME280;22232;50.914;13.858;2023-12-22T03:04:34;95369.75;;;2.06;100.00
36190;BME280;22232;50.914;13.858;2023-12-22T03:07:02;95359.22;;;2.06;100.00
36190;BME280;22232;50.914;13.858;2023-12-22T03:09:29;95355.34;;;2.09;100.00
36190;BME280;22232;50.914;13.858;2023-12-22T03:11:57;95355.00;;;2.05;100.00
36190;BME280;22232;50.914;13.858;2023-12-22T03:14:29;95352.13;;;2.06;100.00
36190;BME280;22232;50.914;13.858;2023-12-22T03:16:57;95351.66;;;2.10;100.00
36190;BME280;22232;50.914;13.858;2023-12-22T03:19:25;95342.75;;;2.11;100.00
36190;BME280;22232;50.914;13.858;2023-12-22T03:21:53;95341.22;;;2.15;100.00
36190;BME280;22232;50.914;13.858;2023-12-22T03:24:20;95334.13;;;2.15;100.00
36190;BME280;22232;50.914;13.858;2023-12-22T03:26:52;95324.97;;;2.18;100.00
36190;BME280;22232;50.914;13.858;2023-12-22T03:29:20;95329.84;;;2.26;100.00
36190;BME280;22232;50.914;13.858;2023-12-22T03:31:47;95322.28;;;2.29;100.00
36190;BME280;22232;50.914;13.858;2023-12-22T03:34:15;95331.69;;;2.25;100.00
36190;BME280;22232;50.914;13.858;2023-12-22T03:36:43;95315.66;;;2.27;100.00
36190;BME280;22232;50.914;13.858;2023-12-22T03:39:12;95313.13;;;2.32;100.00
36190;BME280;22232;50.914;13.858;2023-12-22T03:41:39;95304.50;;;2.37;100.00
36190;BME280;22232;50.914;13.858;2023-12-22T03:44:07;95290.16;;;2.44;100.00
36190;BME280;22232;50.914;13.858;2023-12-22T03:46:34;95282.47;;;2.43;100.00
36190;BME280;22232;50.914;13.858;2023-12-22T03:49:02;95310.41;;;2.44;100.00
36190;BME280;22232;50.914;13.858;2023-12-22T03:51:30;95306.25;;;2.48;100.00
36190;BME280;22232;50.914;13.858;2023-12-22T03:53:58;95320.81;;;2.56;100.00
36190;BME280;22232;50.914;13.858;2023-12-22T03:56:25;95326.16;;;2.61;100.00
36190;BME280;22232;50.914;13.858;2023-12-22T03:58:53;95328.09;;;2.65;100.00
36190;BME280;22232;50.914;13.858;2023-12-22T04:01:20;95329.50;;;2.73;100.00
36190;BME280;22232;50.914;13.858;2023-12-22T04:03:48;95327.16;;;2.76;100.00
36190;BME280;22232;50.914;13.858;2023-12-22T04:06:16;95335.72;;;2.84;100.00
36190;BME280;22232;50.914;13.858;2023-12-22T04:08:43;95338.34;;;2.84;100.00
36190;BME280;22232;50.914;13.858;2023-12-22T04:11:11;95336.00;;;2.87;100.00
36190;BME280;22232;50.914;13.858;2023-12-22T04:13:38;95340.50;;;2.87;100.00
36190;BME280;22232;50.914;13.858;2023-12-22T04:16:06;95334.66;;;2.85;100.00
36190;BME280;22232;50.914;13.858;2023-12-22T04:18:34;95328.84;;;2.83;100.00
36190;BME280;22232;50.914;13.858;2023-12-22T04:21:01;95324.88;;;2.80;100.00
36190;BME280;22232;50.914;13.858;2023-12-22T04:23:29;95334.09;;;2.83;100.00
36190;BME280;22232;50.914;13.858;2023-12-22T04:25:57;95321.38;;;2.74;100.00
36190;BME280;22232;50.914;13.858;2023-12-22T04:28:25;95329.75;;;2.71;100.00
36190;BME280;22232;50.914;13.858;2023-12-22T04:30:52;95314.19;;;2.70;100.00
36190;BME280;22232;50.914;13.858;2023-12-22T04:33:20;95314.19;;;2.70;100.00
36190;BME280;22232;50.914;13.858;2023-12-22T04:35:48;95324.19;;;2.68;100.00
36190;BME280;22232;50.914;13.858;2023-12-22T04:38:15;95337.34;;;2.68;100.00
36190;BME280;22232;50.914;13.858;2023-12-22T04:40:43;95329.44;;;2.68;100.00
36190;BME280;22232;50.914;13.858;2023-12-22T04:43:10;95328.31;;;2.64;100.00
36190;BME280;22232;50.914;13.858;2023-12-22T04:45:38;95318.34;;;2.66;100.00
36190;BME280;22232;50.914;13.858;2023-12-22T04:48:06;95332.28;;;2.66;100.00
36190;BME280;22232;50.914;13.858;2023-12-22T04:50:34;95355.66;;;2.63;100.00
36190;BME280;22232;50.914;13.858;2023-12-22T04:53:01;95335.28;;;2.53;100.00
36190;BME280;22232;50.914;13.858;2023-12-22T04:55:29;95334.94;;;2.49;100.00
36190;BME280;22232;50.914;13.858;2023-12-22T04:57:57;95327.03;;;2.49;100.00
36190;BME280;22232;50.914;13.858;2023-12-22T05:00:25;95336.28;;;2.52;100.00
36190;BME280;22232;50.914;13.858;2023-12-22T05:02:53;95319.72;;;2.51;100.00
36190;BME280;22232;50.914;13.858;2023-12-22T05:05:21;95318.66;;;2.52;100.00
36190;BME280;22232;50.914;13.858;2023-12-22T05:07:49;95314.75;;;2.55;100.00
36190;BME280;22232;50.914;13.858;2023-12-22T05:10:17;95323.22;;;2.57;100.00
36190;BME280;22232;50.914;13.858;2023-12-22T05:12:45;95339.41;;;2.66;100.00
36190;BME280;22232;50.914;13.858;2023-12-22T05:15:12;95330.72;;;2.65;100.00
36190;BME280;22232;50.914;13.858;2023-12-22T05:17:40;95307.66;;;2.56;100.00
36190;BME280;22232;50.914;13.858;2023-12-22T05:20:08;95316.38;;;2.56;100.00
36190;BME280;22232;50.914;13.858;2023-12-22T05:22:37;95321.06;;;2.54;100.00
36190;BME280;22232;50.914;13.858;2023-12-22T05:25:05;95320.19;;;2.48;100.00
36190;BME280;22232;50.914;13.858;2023-12-22T05:27:32;95330.88;;;2.42;100.00
36190;BME280;22232;50.914;13.858;2023-12-22T05:30:00;95341.56;;;2.35;100.00
36190;BME280;22232;50.914;13.858;2023-12-22T05:32:30;95331.69;;;2.25;100.00
36190;BME280;22232;50.914;13.858;2023-12-22T05:34:58;95323.81;;;2.25;100.00
36190;BME280;22232;50.914;13.858;2023-12-22T05:37:26;95342.44;;;2.24;100.00
36190;BME280;22232;50.914;13.858;2023-12-22T05:39:53;95326.03;;;2.17;100.00
36190;BME280;22232;50.914;13.858;2023-12-22T05:42:21;95322.19;;;2.08;100.00
36190;BME280;22232;50.914;13.858;2023-12-22T05:44:49;95342.09;;;2.03;100.00
36190;BME280;22232;50.914;13.858;2023-12-22T05:47:17;95313.16;;;2.03;100.00
36190;BME280;22232;50.914;13.858;2023-12-22T05:49:45;95322.09;;;2.02;100.00
36190;BME280;22232;50.914;13.858;2023-12-22T05:52:13;95327.13;;;2.04;100.00
36190;BME280;22232;50.914;13.858;2023-12-22T05:54:40;95328.16;;;2.03;100.00
36190;BME280;22232;50.914;13.858;2023-12-22T05:57:08;95335.09;;;2.09;100.00
36190;BME280;22232;50.914;13.858;2023-12-22T05:59:36;95328.34;;;2.13;100.00
36190;BME280;22232;50.914;13.858;2023-12-22T06:02:03;95334.13;;;2.15;100.00
36190;BME280;22232;50.914;13.858;2023-12-22T06:04:31;95343.88;;;2.15;100.00
36190;BME280;22232;50.914;13.858;2023-12-22T06:06:59;95345.94;;;2.13;100.00
36190;BME280;22232;50.914;13.858;2023-12-22T06:09:26;95355.44;;;2.14;100.00
36190;BME280;22232;50.914;13.858;2023-12-22T06:11:54;95365.47;;;2.17;100.00
36190;BME280;22232;50.914;13.858;2023-12-22T06:14:22;95369.94;;;2.16;100.00
36190;BME280;22232;50.914;13.858;2023-12-22T06:16:49;95368.75;;;2.24;100.00
36190;BME280;22232;50.914;13.858;2023-12-22T06:19:18;95371.94;;;2.26;100.00
36190;BME280;22232;50.914;13.858;2023-12-22T06:21:46;95371.03;;;2.20;100.00
36190;BME280;22232;50.914;13.858;2023-12-22T06:24:13;95356.06;;;2.21;100.00
36190;BME280;22232;50.914;13.858;2023-12-22T06:26:41;95360.06;;;2.23;100.00
36190;BME280;22232;50.914;13.858;2023-12-22T06:29:09;95378.16;;;2.20;100.00
36190;BME280;22232;50.914;13.858;2023-12-22T06:31:37;95361.31;;;2.21;100.00
36190;BME280;22232;50.914;13.858;2023-12-22T06:34:04;95365.00;;;2.20;100.00
36190;BME280;22232;50.914;13.858;2023-12-22T06:36:32;95369.69;;;2.18;100.00
36190;BME280;22232;50.914;13.858;2023-12-22T06:39:00;95345.59;;;2.09;100.00
36190;BME280;22232;50.914;13.858;2023-12-22T06:41:29;95368.94;;;2.05;100.00
36190;BME280;22232;50.914;13.858;2023-12-22T06:43:57;95350.44;;;2.00;100.00
36190;BME280;22232;50.914;13.858;2023-12-22T06:46:28;95354.38;;;1.98;100.00
36190;BME280;22232;50.914;13.858;2023-12-22T06:48:59;95362.97;;;1.93;100.00
36190;BME280;22232;50.914;13.858;2023-12-22T06:51:31;95357.69;;;1.93;100.00
36190;BME280;22232;50.914;13.858;2023-12-22T06:53:58;95350.69;;;1.99;100.00
36190;BME280;22232;50.914;13.858;2023-12-22T06:56:32;95355.06;;;1.93;100.00
36190;BME280;22232;50.914;13.858;2023-12-22T06:59:01;95367.09;;;1.89;100.00
36190;BME280;22232;50.914;13.858;2023-12-22T07:01:31;95371.53;;;1.89;100.00
36190;BME280;22232;50.914;13.858;2023-12-22T07:04:01;95373.84;;;1.85;100.00
36190;BME280;22232;50.914;13.858;2023-12-22T07:06:33;95359.22;;;1.89;100.00
36190;BME280;22232;50.914;13.858;2023-12-22T07:14:10;95372.41;;;1.77;100.00
36190;BME280;22232;50.914;13.858;2023-12-22T07:16:39;95356.16;;;1.80;100.00
36190;BME280;22232;50.914;13.858;2023-12-22T07:19:06;95366.09;;;1.78;100.00
36190;BME280;22232;50.914;13.858;2023-12-22T07:21:34;95367.38;;;1.76;100.00
36190;BME280;22232;50.914;13.858;2023-12-22T07:24:02;95380.81;;;1.79;100.00
36190;BME280;22232;50.914;13.858;2023-12-22T07:26:29;95374.78;;;1.79;100.00
36190;BME280;22232;50.914;13.858;2023-12-22T07:28:57;95362.09;;;1.76;100.00
36190;BME280;22232;50.914;13.858;2023-12-22T07:31:25;95386.66;;;1.81;100.00
36190;BME280;22232;50.914;13.858;2023-12-22T07:33:55;95393.59;;;1.88;100.00
36190;BME280;22232;50.914;13.858;2023-12-22T07:36:22;95393.03;;;1.86;100.00
36190;BME280;22232;50.914;13.858;2023-12-22T07:38:50;95411.84;;;1.94;100.00
36190;BME280;22232;50.914;13.858;2023-12-22T07:41:17;95412.44;;;1.96;100.00
36190;BME280;22232;50.914;13.858;2023-12-22T07:43:46;95403.13;;;2.05;100.00
36190;BME280;22232;50.914;13.858;2023-12-22T07:46:17;95413.97;;;2.09;100.00
36190;BME280;22232;50.914;13.858;2023-12-22T07:48:45;95424.81;;;2.13;100.00
36190;BME280;22232;50.914;13.858;2023-12-22T07:51:14;95430.22;;;2.06;100.00
36190;BME280;22232;50.914;13.858;2023-12-22T07:53:42;95428.78;;;1.98;100.00
36190;BME280;22232;50.914;13.858;2023-12-22T07:56:11;95446.75;;;1.90;100.00
36190;BME280;22232;50.914;13.858;2023-12-22T07:58:39;95467.56;;;1.79;100.00
36190;BME280;22232;50.914;13.858;2023-12-22T08:01:07;95470.31;;;1.73;100.00
36190;BME280;22232;50.914;13.858;2023-12-22T08:03:34;95471.81;;;1.69;100.00
36190;BME280;22232;50.914;13.858;2023-12-22T08:06:02;95487.72;;;1.50;100.00
36190;BME280;22232;50.914;13.858;2023-12-22T08:08:30;95516.03;;;1.36;100.00
36190;BME280;22232;50.914;13.858;2023-12-22T08:10:58;95508.53;;;1.17;100.00
36190;BME280;22232;50.914;13.858;2023-12-22T08:13:25;95518.56;;;1.08;100.00
36190;BME280;22232;50.914;13.858;2023-12-22T08:15:53;95548.66;;;0.94;100.00
36190;BME280;22232;50.914;13.858;2023-12-22T08:18:21;95528.81;;;0.86;100.00
36190;BME280;22232;50.914;13.858;2023-12-22T08:20:49;95518.44;;;0.49;100.00
36190;BME280;22232;50.914;13.858;2023-12-22T08:23:18;95521.31;;;0.29;100.00
36190;BME280;22232;50.914;13.858;2023-12-22T08:25:46;95528.56;;;0.15;100.00
36190;BME280;22232;50.914;13.858;2023-12-22T08:28:15;95544.34;;;0.09;100.00
36190;BME280;22232;50.914;13.858;2023-12-22T08:30:43;95536.72;;;0.07;100.00
36190;BME280;22232;50.914;13.858;2023-12-22T08:33:10;95535.50;;;0.10;100.00
36190;BME280;22232;50.914;13.858;2023-12-22T08:35:38;95537.69;;;0.13;100.00
36190;BME280;22232;50.914;13.858;2023-12-22T08:38:05;95538.03;;;0.16;100.00
36190;BME280;22232;50.914;13.858;2023-12-22T08:40:35;95531.19;;;0.15;100.00
36190;BME280;22232;50.914;13.858;2023-12-22T08:43:03;95540.84;;;0.15;100.00
36190;BME280;22232;50.914;13.858;2023-12-22T08:45:32;95546.69;;;0.17;100.00
36190;BME280;22232;50.914;13.858;2023-12-22T08:48:00;95551.72;;;0.18;100.00
36190;BME280;22232;50.914;13.858;2023-12-22T08:50:28;95555.94;;;0.19;100.00
36190;BME280;22232;50.914;13.858;2023-12-22T08:52:55;95568.16;;;0.26;100.00
36190;BME280;22232;50.914;13.858;2023-12-22T08:55:23;95579.81;;;0.30;100.00
36190;BME280;22232;50.914;13.858;2023-12-22T08:57:51;95556.13;;;0.36;100.00
36190;BME280;22232;50.914;13.858;2023-12-22T09:00:28;95562.22;;;0.49;100.00
36190;BME280;22232;50.914;13.858;2023-12-22T09:02:56;95566.00;;;0.53;100.00
36190;BME280;22232;50.914;13.858;2023-12-22T09:05:24;95556.50;;;0.52;100.00
36190;BME280;22232;50.914;13.858;2023-12-22T09:07:51;95554.03;;;0.57;100.00
36190;BME280;22232;50.914;13.858;2023-12-22T09:10:19;95561.25;;;0.61;100.00
36190;BME280;22232;50.914;13.858;2023-12-22T09:12:47;95568.88;;;0.63;100.00
36190;BME280;22232;50.914;13.858;2023-12-22T09:15:15;95565.38;;;0.69;100.00
36190;BME280;22232;50.914;13.858;2023-12-22T09:17:43;95562.00;;;0.80;100.00
36190;BME280;22232;50.914;13.858;2023-12-22T09:20:11;95566.53;;;0.85;100.00
36190;BME280;22232;50.914;13.858;2023-12-22T09:22:39;95572.53;;;0.92;100.00
36190;BME280;22232;50.914;13.858;2023-12-22T09:25:07;95562.56;;;0.94;100.00
36190;BME280;22232;50.914;13.858;2023-12-22T09:27:36;95590.31;;;0.90;100.00
36190;BME280;22232;50.914;13.858;2023-12-22T09:30:04;95600.69;;;0.97;100.00
36190;BME280;22232;50.914;13.858;2023-12-22T09:32:34;95608.72;;;1.02;100.00
36190;BME280;22232;50.914;13.858;2023-12-22T09:35:02;95617.16;;;1.04;100.00
36190;BME280;22232;50.914;13.858;2023-12-22T09:37:30;95628.94;;;1.13;100.00
36190;BME280;22232;50.914;13.858;2023-12-22T09:39:58;95640.00;;;1.15;100.00
36190;BME280;22232;50.914;13.858;2023-12-22T09:42:25;95652.19;;;1.09;100.00
36190;BME280;22232;50.914;13.858;2023-12-22T09:44:55;95637.03;;;1.11;100.00
36190;BME280;22232;50.914;13.858;2023-12-22T09:47:27;95617.72;;;1.06;100.00
36190;BME280;22232;50.914;13.858;2023-12-22T09:49:57;95620.22;;;1.31;100.00
36190;BME280;22232;50.914;13.858;2023-12-22T09:52:26;95619.88;;;1.51;100.00
36190;BME280;22232;50.914;13.858;2023-12-22T09:54:54;95605.50;;;1.53;100.00
36190;BME280;22232;50.914;13.858;2023-12-22T09:57:24;95604.47;;;1.78;100.00
36190;BME280;22232;50.914;13.858;2023-12-22T09:59:55;95595.72;;;2.13;100.00
36190;BME280;22232;50.914;13.858;2023-12-22T10:02:27;95589.69;;;2.00;100.00
36190;BME280;22232;50.914;13.858;2023-12-22T10:04:56;95597.50;;;1.95;100.00
36190;BME280;22232;50.914;13.858;2023-12-22T10:07:25;95590.41;;;1.84;100.00
36190;BME280;22232;50.914;13.858;2023-12-22T10:09:54;95573.13;;;1.76;100.00
36190;BME280;22232;50.914;13.858;2023-12-22T10:12:25;95589.03;;;1.81;100.00
36190;BME280;22232;50.914;13.858;2023-12-22T10:14:54;95583.88;;;1.87;100.00
36190;BME280;22232;50.914;13.858;2023-12-22T10:17:22;95589.59;;;1.95;100.00
36190;BME280;22232;50.914;13.858;2023-12-22T10:24:02;95560.91;;;1.94;100.00
36190;BME280;22232;50.914;13.858;2023-12-22T10:26:30;95602.03;;;1.88;100.00
36190;BME280;22232;50.914;13.858;2023-12-22T10:28:58;95625.81;;;1.93;100.00
36190;BME280;22232;50.914;13.858;2023-12-22T10:31:25;95635.31;;;1.94;100.00
36190;BME280;22232;50.914;13.858;2023-12-22T10:33:53;95618.97;;;1.92;100.00
36190;BME280;22232;50.914;13.858;2023-12-22T10:36:22;95624.00;;;1.94;100.00
36190;BME280;22232;50.914;13.858;2023-12-22T10:38:50;95611.31;;;1.91;100.00
36190;BME280;22232;50.914;13.858;2023-12-22T10:41:17;95610.31;;;1.80;100.00
36190;BME280;22232;50.914;13.858;2023-12-22T10:43:45;95646.03;;;1.69;100.00
36190;BME280;22232;50.914;13.858;2023-12-22T10:46:13;95654.03;;;1.63;100.00
36190;BME280;22232;50.914;13.858;2023-12-22T10:48:41;95648.44;;;1.59;100.00
36190;BME280;22232;50.914;13.858;2023-12-22T10:51:12;95649.69;;;1.56;100.00
36190;BME280;22232;50.914;13.858;2023-12-22T10:53:42;95660.88;;;1.64;100.00
36190;BME280;22232;50.914;13.858;2023-12-22T10:56:11;95660.09;;;1.63;100.00
36190;BME280;22232;50.914;13.858;2023-12-22T10:58:39;95664.91;;;1.66;100.00
36190;BME280;22232;50.914;13.858;2023-12-22T11:01:07;95655.63;;;1.64;100.00
36190;BME280;22232;50.914;13.858;2023-12-22T11:03:39;95647.06;;;1.56;100.00
36190;BME280;22232;50.914;13.858;2023-12-22T11:06:10;95652.09;;;1.46;100.00
36190;BME280;22232;50.914;13.858;2023-12-22T11:08:40;95631.84;;;1.35;100.00
36190;BME280;22232;50.914;13.858;2023-12-22T11:11:16;95645.13;;;0.98;100.00
36190;BME280;22232;50.914;13.858;2023-12-22T11:13:48;95667.09;;;0.85;100.00
36190;BME280;22232;50.914;13.858;2023-12-22T11:16:18;95669.34;;;0.82;100.00
36190;BME280;22232;50.914;13.858;2023-12-22T11:18:47;95656.66;;;0.79;100.00
36190;BME280;22232;50.914;13.858;2023-12-22T11:21:18;95658.28;;;0.80;100.00
36190;BME280;22232;50.914;13.858;2023-12-22T11:23:47;95653.19;;;0.97;100.00
36190;BME280;22232;50.914;13.858;2023-12-22T11:26:17;95647.28;;;1.01;100.00
36190;BME280;22232;50.914;13.858;2023-12-22T11:28:46;95637.63;;;1.13;100.00
36190;BME280;22232;50.914;13.858;2023-12-22T11:31:14;95611.75;;;1.29;100.00
36190;BME280;22232;50.914;13.858;2023-12-22T11:33:47;95626.94;;;1.38;100.00
36190;BME280;22232;50.914;13.858;2023-12-22T11:36:31;95597.38;;;1.43;100.00
36190;BME280;22232;50.914;13.858;2023-12-22T11:38:59;95608.09;;;1.42;100.00
36190;BME280;22232;50.914;13.858;2023-12-22T11:41:30;95593.72;;;1.44;100.00
36190;BME280;22232;50.914;13.858;2023-12-22T11:44:01;95581.59;;;1.55;100.00
36190;BME280;22232;50.914;13.858;2023-12-22T11:46:31;95582.75;;;1.59;100.00
36190;BME280;22232;50.914;13.858;2023-12-22T11:49:00;95596.69;;;1.59;100.00
36190;BME280;22232;50.914;13.858;2023-12-22T11:51:32;95598.53;;;1.71;100.00
36190;BME280;22232;50.914;13.858;2023-12-22T11:54:02;95591.31;;;1.78;100.00
36190;BME280;22232;50.914;13.858;2023-12-22T11:56:30;95586.06;;;1.78;100.00
36190;BME280;22232;50.914;13.858;2023-12-22T11:58:58;95580.56;;;1.79;100.00
36190;BME280;22232;50.914;13.858;2023-12-22T12:01:28;95568.66;;;1.89;100.00
36190;BME280;22232;50.914;13.858;2023-12-22T12:03:59;95566.94;;;1.94;100.00
36190;BME280;22232;50.914;13.858;2023-12-22T12:08:58;95554.13;;;2.10;100.00
36190;BME280;22232;50.914;13.858;2023-12-22T12:14:21;95562.69;;;2.17;100.00
36190;BME280;22232;50.914;13.858;2023-12-22T12:16:50;95542.31;;;2.24;100.00
36190;BME280;22232;50.914;13.858;2023-12-22T12:19:18;95546.41;;;2.32;100.00
36190;BME280;22232;50.914;13.858;2023-12-22T12:21:47;95549.28;;;2.30;100.00
36190;BME280;22232;50.914;13.858;2023-12-22T12:24:15;95533.97;;;2.27;100.00
36190;BME280;22232;50.914;13.858;2023-12-22T12:26:43;95533.38;;;2.25;100.00
36190;BME280;22232;50.914;13.858;2023-12-22T12:29:10;95530.28;;;2.28;100.00
36190;BME280;22232;50.914;13.858;2023-12-22T12:31:38;95528.69;;;2.27;100.00
36190;BME280;22232;50.914;13.858;2023-12-22T12:34:06;95532.91;;;2.28;100.00
36190;BME280;22232;50.914;13.858;2023-12-22T12:36:35;95518.59;;;2.36;100.00
36190;BME280;22232;50.914;13.858;2023-12-22T12:39:07;95542.38;;;2.41;100.00
36190;BME280;22232;50.914;13.858;2023-12-22T12:41:39;95536.88;;;2.42;100.00
36190;BME280;22232;50.914;13.858;2023-12-22T12:44:08;95510.81;;;2.41;100.00
36190;BME280;22232;50.914;13.858;2023-12-22T12:46:39;95527.41;;;2.41;100.00
36190;BME280;22232;50.914;13.858;2023-12-22T12:49:11;95523.88;;;2.36;100.00
36190;BME280;22232;50.914;13.858;2023-12-22T12:51:43;95555.25;;;2.25;100.00
36190;BME280;22232;50.914;13.858;2023-12-22T12:54:11;95549.09;;;2.20;100.00
36190;BME280;22232;50.914;13.858;2023-12-22T12:56:44;95581.91;;;2.05;100.00
36190;BME280;22232;50.914;13.858;2023-12-22T12:59:13;95576.56;;;1.89;100.00
36190;BME280;22232;50.914;13.858;2023-12-22T13:01:46;95582.19;;;1.69;100.00
36190;BME280;22232;50.914;13.858;2023-12-22T13:04:14;95569.50;;;1.54;100.00
36190;BME280;22232;50.914;13.858;2023-12-22T13:06:47;95555.56;;;1.42;100.00
36190;BME280;22232;50.914;13.858;2023-12-22T13:09:16;95569.84;;;1.34;100.00
36190;BME280;22232;50.914;13.858;2023-12-22T13:11:45;95578.16;;;1.19;100.00
36190;BME280;22232;50.914;13.858;2023-12-22T13:14:24;95576.53;;;1.06;100.00